createdAt,value
2017-09-25T00:01:39.553Z,32.90
2017-09-25T00:04:06.864Z,33.17
2017-09-25T00:06:34.200Z,32.30
2017-09-25T00:09:01.508Z,31.93
2017-09-25T00:11:28.870Z,32.17
2017-09-25T00:13:56.203Z,32.97
2017-09-25T00:16:23.517Z,35.67
2017-09-25T00:18:50.894Z,36.30
2017-09-25T00:21:18.217Z,35.37
2017-09-25T00:23:45.569Z,35.10
2017-09-25T00:26:12.888Z,37.80
2017-09-25T00:28:40.216Z,35.00
2017-09-25T00:31:07.531Z,35.50
2017-09-25T00:33:34.863Z,36.73
2017-09-25T00:36:02.160Z,35.23
2017-09-25T00:38:29.505Z,34.63
2017-09-25T00:40:56.842Z,35.90
2017-09-25T00:43:24.196Z,36.30
2017-09-25T00:45:51.521Z,35.93
2017-09-25T00:48:18.903Z,36.57
2017-09-25T00:50:47.177Z,37.10
2017-09-25T00:53:17.562Z,34.70
2017-09-25T00:55:50.782Z,36.47
2017-09-25T00:58:18.121Z,37.70
2017-09-25T01:00:51.213Z,38.07
2017-09-25T01:03:35.305Z,37.60
2017-09-25T01:06:08.531Z,39.10
2017-09-25T01:08:35.877Z,37.20
2017-09-25T01:11:03.168Z,37.00
2017-09-25T01:13:30.464Z,38.70
2017-09-25T01:15:57.812Z,38.93
2017-09-25T01:18:25.141Z,37.20
2017-09-25T01:20:52.462Z,37.23
2017-09-25T01:23:19.953Z,38.07
2017-09-25T01:25:47.271Z,37.03
2017-09-25T01:28:14.604Z,38.43
2017-09-25T01:30:41.923Z,40.17
2017-09-25T01:33:09.230Z,41.37
2017-09-25T01:35:36.544Z,38.27
2017-09-25T01:38:03.881Z,41.93
2017-09-25T01:40:31.248Z,41.60
2017-09-25T01:42:58.549Z,43.33
2017-09-25T01:45:25.880Z,39.60
2017-09-25T01:47:53.172Z,42.47
2017-09-25T01:50:20.504Z,41.73
2017-09-25T01:52:48.146Z,40.00
2017-09-25T01:55:15.464Z,39.93
2017-09-25T01:57:43.030Z,38.70
2017-09-25T02:00:10.354Z,39.03
2017-09-25T02:02:37.677Z,38.23
2017-09-25T02:05:04.976Z,38.27
2017-09-25T02:07:32.295Z,37.33
2017-09-25T02:09:59.967Z,36.73
2017-09-25T02:12:27.285Z,37.07
2017-09-25T02:14:54.599Z,36.13
2017-09-25T02:17:21.930Z,39.43
2017-09-25T02:19:49.250Z,36.30
2017-09-25T02:22:16.621Z,36.90
2017-09-25T02:24:43.915Z,36.43
2017-09-25T02:27:11.241Z,37.97
2017-09-25T02:29:38.547Z,35.93
2017-09-25T02:32:05.860Z,35.70
2017-09-25T02:34:33.175Z,37.33
2017-09-25T02:37:00.489Z,35.90
2017-09-25T02:39:27.812Z,35.20
2017-09-25T02:41:55.176Z,36.87
2017-09-25T02:44:22.531Z,34.83
2017-09-25T02:46:50.132Z,35.70
2017-09-25T02:49:17.452Z,36.13
2017-09-25T02:51:44.744Z,35.63
2017-09-25T02:54:12.090Z,36.80
2017-09-25T02:56:39.385Z,34.27
2017-09-25T02:59:06.700Z,36.17
2017-09-25T03:01:34.010Z,35.40
2017-09-25T03:04:01.340Z,34.87
2017-09-25T03:06:28.681Z,35.60
2017-09-25T03:08:56.030Z,35.23
2017-09-25T03:11:23.361Z,34.90
2017-09-25T03:13:50.704Z,34.40
2017-09-25T03:16:18.053Z,34.90
2017-09-25T03:18:45.390Z,33.90
2017-09-25T03:21:13.008Z,33.77
2017-09-25T03:23:40.328Z,34.37
2017-09-25T03:26:07.710Z,34.37
2017-09-25T03:28:35.100Z,35.43
2017-09-25T03:31:02.393Z,33.70
2017-09-25T03:33:29.715Z,33.37
2017-09-25T03:35:57.033Z,32.77
2017-09-25T03:38:24.350Z,34.80
2017-09-25T03:40:51.663Z,35.50
2017-09-25T03:43:18.979Z,34.10
2017-09-25T03:45:46.303Z,34.07
2017-09-25T03:48:13.612Z,32.70
2017-09-25T03:50:40.938Z,33.83
2017-09-25T03:53:08.248Z,33.90
2017-09-25T03:55:35.568Z,34.80
2017-09-25T03:58:02.872Z,33.07
2017-09-25T04:00:30.207Z,33.07
2017-09-25T04:02:57.512Z,32.27
2017-09-25T04:05:24.827Z,32.67
2017-09-25T04:07:52.143Z,32.80
2017-09-25T04:10:19.451Z,33.20
2017-09-25T04:12:47.072Z,33.00
2017-09-25T04:15:14.405Z,32.60
2017-09-25T04:17:41.713Z,32.00
2017-09-25T04:20:09.030Z,32.90
2017-09-25T04:22:36.334Z,31.80
2017-09-25T04:25:05.650Z,32.17
2017-09-25T04:27:32.958Z,32.20
2017-09-25T04:30:00.301Z,32.57
2017-09-25T04:32:27.600Z,33.00
2017-09-25T04:34:54.919Z,31.63
2017-09-25T04:37:22.252Z,31.80
2017-09-25T04:39:50.488Z,32.70
2017-09-25T04:42:17.962Z,30.90
2017-09-25T04:44:45.258Z,30.40
2017-09-25T04:47:12.580Z,31.10
2017-09-25T04:49:39.876Z,32.00
2017-09-25T04:52:07.221Z,32.03
2017-09-25T04:54:34.547Z,31.33
2017-09-25T04:57:01.892Z,31.97
2017-09-25T04:59:29.232Z,33.10
2017-09-25T05:01:56.594Z,31.03
2017-09-25T05:04:23.900Z,31.57
2017-09-25T05:06:51.226Z,31.20
2017-09-25T05:09:18.544Z,32.17
2017-09-25T05:11:45.874Z,31.33
2017-09-25T05:14:13.278Z,30.70
2017-09-25T05:16:40.649Z,30.83
2017-09-25T05:19:07.986Z,32.10
2017-09-25T05:21:35.409Z,31.00
2017-09-25T05:24:02.729Z,31.83
2017-09-25T05:26:30.028Z,30.97
2017-09-25T05:28:57.380Z,32.80
2017-09-25T05:31:24.729Z,31.97
2017-09-25T05:33:52.044Z,32.33
2017-09-25T05:36:19.388Z,30.97
2017-09-25T05:38:46.756Z,29.67
2017-09-25T05:41:14.064Z,33.67
2017-09-25T05:43:41.400Z,31.20
2017-09-25T05:46:08.726Z,30.30
2017-09-25T05:48:36.085Z,31.20
2017-09-25T05:51:03.387Z,31.80
2017-09-25T05:53:30.743Z,33.60
2017-09-25T05:55:59.030Z,35.10
2017-09-25T05:58:26.356Z,35.07
2017-09-25T06:00:53.684Z,34.97
2017-09-25T06:03:21.066Z,32.67
2017-09-25T06:05:48.380Z,32.93
2017-09-25T06:08:15.717Z,32.30
2017-09-25T06:10:43.055Z,33.77
2017-09-25T06:13:11.333Z,33.20
2017-09-25T06:15:38.974Z,33.50
2017-09-25T06:18:06.318Z,35.30
2017-09-25T06:20:33.624Z,32.73
2017-09-25T06:23:00.950Z,32.70
2017-09-25T06:25:28.489Z,33.97
2017-09-25T06:27:55.893Z,33.90
2017-09-25T06:30:23.220Z,33.37
2017-09-25T06:32:50.524Z,34.37
2017-09-25T06:35:18.105Z,34.80
2017-09-25T06:37:45.429Z,35.03
2017-09-25T06:40:12.753Z,34.40
2017-09-25T06:42:40.053Z,33.97
2017-09-25T06:45:07.376Z,35.43
2017-09-25T06:47:34.706Z,34.77
2017-09-25T06:50:02.061Z,35.13
2017-09-25T06:52:29.360Z,32.73
2017-09-25T06:54:56.677Z,32.40
2017-09-25T06:57:24.073Z,34.73
2017-09-25T06:59:51.434Z,32.43
2017-09-25T07:02:18.742Z,34.50
2017-09-25T07:04:46.062Z,33.00
2017-09-25T07:07:13.436Z,34.00
2017-09-25T07:09:40.784Z,34.70
2017-09-25T07:12:08.114Z,36.20
2017-09-25T07:14:35.481Z,34.87
2017-09-25T07:17:02.801Z,35.63
2017-09-25T07:19:30.175Z,36.37
2017-09-25T07:21:57.496Z,36.30
2017-09-25T07:24:24.833Z,38.40
2017-09-25T07:26:52.177Z,38.90
2017-09-25T07:29:19.500Z,38.47
2017-09-25T07:31:46.838Z,38.20
2017-09-25T07:34:14.185Z,38.73
2017-09-25T07:36:41.517Z,37.63
2017-09-25T07:39:08.886Z,40.10
2017-09-25T07:41:36.253Z,35.53
2017-09-25T07:44:03.580Z,35.57
2017-09-25T07:46:30.901Z,36.73
2017-09-25T07:48:58.266Z,36.20
2017-09-25T07:51:25.608Z,35.27
2017-09-25T07:53:52.910Z,37.63
2017-09-25T07:56:20.270Z,36.60
2017-09-25T07:58:47.603Z,36.10
2017-09-25T08:01:14.941Z,35.47
2017-09-25T08:03:42.283Z,35.27
2017-09-25T08:06:09.634Z,35.43
2017-09-25T08:08:36.986Z,37.80
2017-09-25T08:11:04.329Z,36.63
2017-09-25T08:13:31.651Z,36.67
2017-09-25T08:15:59.020Z,36.27
2017-09-25T08:18:26.320Z,38.70
2017-09-25T08:20:53.629Z,40.00
2017-09-25T08:23:20.945Z,40.27
2017-09-25T08:25:48.556Z,38.33
2017-09-25T08:28:16.681Z,37.40
2017-09-25T08:30:43.980Z,38.47
2017-09-25T08:33:11.325Z,36.17
2017-09-25T08:35:38.645Z,36.20
2017-09-25T08:38:06.821Z,35.63
2017-09-25T08:40:34.129Z,35.60
2017-09-25T08:43:01.471Z,34.37
2017-09-25T08:45:28.769Z,36.20
2017-09-25T08:47:56.104Z,34.10
2017-09-25T08:50:23.698Z,33.07
2017-09-25T08:52:51.017Z,33.57
2017-09-25T08:55:18.326Z,33.13
2017-09-25T08:57:45.645Z,33.30
2017-09-25T09:00:12.977Z,34.30
2017-09-25T09:02:40.329Z,32.23
2017-09-25T09:05:07.653Z,32.20
2017-09-25T09:07:35.010Z,32.17
2017-09-25T09:10:02.329Z,32.17
2017-09-25T09:12:29.717Z,31.23
2017-09-25T09:14:57.013Z,30.57
2017-09-25T09:17:24.350Z,31.73
2017-09-25T09:19:51.933Z,32.03
2017-09-25T09:22:19.248Z,30.50
2017-09-25T09:24:46.592Z,31.23
2017-09-25T09:27:13.918Z,33.97
2017-09-25T09:29:41.238Z,32.80
2017-09-25T09:32:08.546Z,30.97
2017-09-25T09:34:35.874Z,32.70
2017-09-25T09:37:04.109Z,30.80
2017-09-25T09:39:31.493Z,31.47
2017-09-25T09:41:59.098Z,30.63
2017-09-25T09:44:26.449Z,29.67
2017-09-25T09:46:54.085Z,30.20
2017-09-25T09:49:21.460Z,29.97
2017-09-25T09:51:48.762Z,29.50
2017-09-25T09:54:16.085Z,29.63
2017-09-25T09:56:43.748Z,30.67
2017-09-25T09:59:11.070Z,31.97
2017-09-25T10:01:38.378Z,31.50
2017-09-25T10:04:05.705Z,29.97
2017-09-25T10:06:33.037Z,28.83
2017-09-25T10:09:00.395Z,30.67
2017-09-25T10:11:27.758Z,28.80
2017-09-25T10:13:55.082Z,28.10
2017-09-25T10:16:22.701Z,28.17
2017-09-25T10:18:50.073Z,28.00
2017-09-25T10:21:17.365Z,28.47
2017-09-25T10:23:44.665Z,26.47
2017-09-25T10:26:11.994Z,28.30
2017-09-25T10:28:39.305Z,25.90
2017-09-25T10:31:06.666Z,26.40
2017-09-25T10:33:33.992Z,26.37
2017-09-25T10:36:01.460Z,26.53
2017-09-25T10:38:28.780Z,25.40
2017-09-25T10:40:56.155Z,25.30
2017-09-25T10:43:23.469Z,24.97
2017-09-25T10:45:50.797Z,24.87
2017-09-25T10:48:18.465Z,24.30
2017-09-25T10:50:45.797Z,23.97
2017-09-25T10:53:13.121Z,23.63
2017-09-25T10:55:40.477Z,24.70
2017-09-25T10:58:07.816Z,25.57
2017-09-25T11:00:35.156Z,25.27
2017-09-25T11:03:02.498Z,26.83
2017-09-25T11:05:29.841Z,29.07
2017-09-25T11:07:57.161Z,29.50
2017-09-25T11:10:24.833Z,29.40
2017-09-25T11:12:52.136Z,31.40
2017-09-25T11:15:19.478Z,31.03
2017-09-25T11:17:46.789Z,32.10
2017-09-25T11:20:14.121Z,32.00
2017-09-25T11:22:41.637Z,33.00
2017-09-25T11:25:08.975Z,30.67
2017-09-25T11:27:36.349Z,30.50
2017-09-25T11:30:03.882Z,28.33
2017-09-25T11:32:31.309Z,27.87
2017-09-25T11:34:58.625Z,27.80
2017-09-25T11:37:25.954Z,27.80
2017-09-25T11:39:53.265Z,26.60
2017-09-25T11:42:20.601Z,26.10
2017-09-25T11:44:47.909Z,24.50
2017-09-25T11:47:15.244Z,24.40
2017-09-25T11:49:42.592Z,25.97
2017-09-25T11:52:09.942Z,25.13
2017-09-25T11:54:37.284Z,24.30
2017-09-25T11:57:04.758Z,23.80
2017-09-25T11:59:32.071Z,24.53
2017-09-25T12:01:59.428Z,25.07
2017-09-25T12:04:26.729Z,23.53
2017-09-25T12:06:54.050Z,23.63
2017-09-25T12:09:21.350Z,23.77
2017-09-25T12:11:48.664Z,23.27
2017-09-25T12:14:15.994Z,23.50
2017-09-25T12:16:43.314Z,22.60
2017-09-25T12:19:10.646Z,23.03
2017-09-25T12:21:37.986Z,22.60
2017-09-25T12:24:05.311Z,21.83
2017-09-25T12:26:32.632Z,21.40
2017-09-25T12:28:59.966Z,21.67
2017-09-25T12:31:27.298Z,19.53
2017-09-25T12:33:54.660Z,19.53
2017-09-25T12:36:22.029Z,18.40
2017-09-25T12:38:49.372Z,18.03
2017-09-25T12:41:16.682Z,17.10
2017-09-25T12:43:44.000Z,17.57
2017-09-25T12:46:11.356Z,18.60
2017-09-25T12:48:38.701Z,17.83
2017-09-25T12:51:06.043Z,16.47
2017-09-25T12:53:33.368Z,17.23
2017-09-25T12:56:00.712Z,17.90
2017-09-25T12:58:28.022Z,17.40
2017-09-25T13:00:55.378Z,18.30
2017-09-25T13:03:22.649Z,18.40
2017-09-25T13:05:49.973Z,17.90
2017-09-25T13:08:17.306Z,18.40
2017-09-25T13:10:44.628Z,18.57
2017-09-25T13:13:11.929Z,19.40
2017-09-25T13:15:39.257Z,18.97
2017-09-25T13:18:06.888Z,18.87
2017-09-25T13:20:34.227Z,18.30
2017-09-25T13:23:01.580Z,19.30
2017-09-25T13:25:28.929Z,19.40
2017-09-25T13:27:56.245Z,18.90
2017-09-25T13:30:23.573Z,18.67
2017-09-25T13:32:51.229Z,18.13
2017-09-25T13:35:18.675Z,20.10
2017-09-25T13:37:46.045Z,20.33
2017-09-25T13:40:13.369Z,19.20
2017-09-25T13:42:40.702Z,18.63
2017-09-25T13:45:08.033Z,20.00
2017-09-25T13:47:35.381Z,19.47
2017-09-25T13:50:02.709Z,19.70
2017-09-25T13:52:30.073Z,19.90
2017-09-25T13:54:57.392Z,19.83
2017-09-25T13:57:24.757Z,19.00
2017-09-25T14:02:24.862Z,19.20
2017-09-25T14:04:52.192Z,19.03
2017-09-25T14:07:19.541Z,19.93
2017-09-25T14:09:46.860Z,20.10
2017-09-25T14:12:14.193Z,18.40
2017-09-25T14:14:41.526Z,19.27
2017-09-25T14:17:08.822Z,18.60
2017-09-25T14:19:36.161Z,18.30
2017-09-25T14:22:03.574Z,17.73
2017-09-25T14:24:30.942Z,18.60
2017-09-25T14:26:58.268Z,17.50
2017-09-25T14:29:25.674Z,17.97
2017-09-25T14:31:52.982Z,17.77
2017-09-25T14:34:20.313Z,17.50
2017-09-25T14:36:47.657Z,16.67
2017-09-25T14:39:14.992Z,15.73
2017-09-25T14:41:42.294Z,15.87
2017-09-25T14:44:09.606Z,16.77
2017-09-25T14:46:36.946Z,15.53
2017-09-25T14:49:04.241Z,15.70
2017-09-25T14:51:31.621Z,16.50
2017-09-25T14:53:58.928Z,16.50
2017-09-25T14:56:26.373Z,15.37
2017-09-25T14:58:53.697Z,16.57
2017-09-25T15:01:21.853Z,15.90
2017-09-25T15:03:49.197Z,15.60
2017-09-25T15:06:16.521Z,15.23
2017-09-25T15:08:44.150Z,16.17
2017-09-25T15:11:11.507Z,15.67
2017-09-25T15:13:39.812Z,16.53
2017-09-25T15:16:07.165Z,15.43
2017-09-25T15:18:34.475Z,16.00
2017-09-25T15:21:01.786Z,14.77
2017-09-25T15:23:29.100Z,14.80
2017-09-25T15:25:56.491Z,14.60
2017-09-25T15:28:23.869Z,13.77
2017-09-25T15:30:51.189Z,15.47
2017-09-25T15:33:18.550Z,15.17
2017-09-25T15:35:46.049Z,15.97
2017-09-25T15:38:13.390Z,15.30
2017-09-25T15:40:40.746Z,14.33
2017-09-25T15:43:08.118Z,14.07
2017-09-25T15:45:36.367Z,13.80
2017-09-25T15:48:03.724Z,13.33
2017-09-25T15:50:31.029Z,14.37
2017-09-25T15:52:58.354Z,14.30
2017-09-25T15:55:25.656Z,16.20
2017-09-25T15:57:53.001Z,14.33
2017-09-25T16:00:20.338Z,14.90
2017-09-25T16:02:47.713Z,14.00
2017-09-25T16:05:15.624Z,14.00
2017-09-25T16:07:42.938Z,14.50
2017-09-25T16:10:10.289Z,13.70
2017-09-25T16:12:37.614Z,13.77
2017-09-25T16:15:04.928Z,14.30
2017-09-25T16:17:32.244Z,14.20
2017-09-25T16:19:59.592Z,15.73
2017-09-25T16:22:26.910Z,14.97
2017-09-25T16:24:54.224Z,15.47
2017-09-25T16:27:21.585Z,15.93
2017-09-25T16:29:48.981Z,15.03
2017-09-25T16:32:16.277Z,15.27
2017-09-25T16:34:43.584Z,15.13
2017-09-25T16:37:10.940Z,15.23
2017-09-25T16:39:38.269Z,16.30
2017-09-25T16:42:05.616Z,14.60
2017-09-25T16:44:32.978Z,16.00
2017-09-25T16:47:00.327Z,15.60
2017-09-25T16:49:27.633Z,15.43
2017-09-25T16:51:54.981Z,15.23
2017-09-25T16:54:22.324Z,15.03
2017-09-25T16:56:49.666Z,15.70
2017-09-25T16:59:16.990Z,15.80
2017-09-25T17:01:44.653Z,15.13
2017-09-25T17:04:11.992Z,15.10
2017-09-25T17:06:40.341Z,16.17
2017-09-25T17:09:07.641Z,16.13
2017-09-25T17:11:34.956Z,16.13
2017-09-25T17:14:02.283Z,16.37
2017-09-25T17:16:29.616Z,17.00
2017-09-25T17:18:56.970Z,16.70
2017-09-25T17:21:24.329Z,16.07
2017-09-25T17:23:51.633Z,16.63
2017-09-25T17:26:18.968Z,16.53
2017-09-25T17:28:46.285Z,16.40
2017-09-25T17:31:13.608Z,16.93
2017-09-25T17:33:40.930Z,17.73
2017-09-25T17:36:08.272Z,17.83
2017-09-25T17:38:35.688Z,18.43
2017-09-25T17:41:02.980Z,18.17
2017-09-25T17:43:30.373Z,17.73
2017-09-25T17:45:57.752Z,18.60
2017-09-25T17:48:25.106Z,20.03
2017-09-25T17:50:52.403Z,19.00
2017-09-25T17:53:19.769Z,19.40
2017-09-25T17:55:47.569Z,19.63
2017-09-25T17:58:14.893Z,19.13
2017-09-25T18:00:42.205Z,18.03
2017-09-25T18:03:09.504Z,18.73
2017-09-25T18:05:36.905Z,18.87
2017-09-25T18:08:04.238Z,17.20
2017-09-25T18:10:31.649Z,18.37
2017-09-25T18:12:58.960Z,18.90
2017-09-25T18:15:26.473Z,19.90
2017-09-25T18:17:54.725Z,18.80
2017-09-25T18:20:22.052Z,19.40
2017-09-25T18:22:49.670Z,18.00
2017-09-25T18:25:17.140Z,18.47
2017-09-25T18:27:44.445Z,18.80
2017-09-25T18:30:11.820Z,18.83
2017-09-25T18:32:39.161Z,19.33
2017-09-25T18:35:06.526Z,19.90
2017-09-25T18:37:33.849Z,21.63
2017-09-25T18:40:01.186Z,21.00
2017-09-25T18:42:28.592Z,19.23
2017-09-25T18:44:55.911Z,19.03
2017-09-25T18:47:23.334Z,20.10
2017-09-25T18:49:50.662Z,20.30
2017-09-25T18:52:18.017Z,19.30
2017-09-25T18:54:45.341Z,19.37
2017-09-25T18:57:12.693Z,18.73
2017-09-25T18:59:40.029Z,17.63
2017-09-25T19:02:07.369Z,18.80
2017-09-25T19:04:34.685Z,19.10
2017-09-25T19:07:02.005Z,18.40
2017-09-25T19:09:29.333Z,18.63
2017-09-25T19:11:56.644Z,18.67
2017-09-25T19:14:23.969Z,19.77
2017-09-25T19:16:51.338Z,18.60
2017-09-25T19:19:18.754Z,19.50
2017-09-25T19:21:46.077Z,20.10
2017-09-25T19:24:13.429Z,19.43
2017-09-25T19:26:40.769Z,18.80
2017-09-25T19:29:08.097Z,19.70
2017-09-25T19:31:35.432Z,19.33
2017-09-25T19:34:02.843Z,20.20
2017-09-25T19:36:30.196Z,19.93
2017-09-25T19:38:57.500Z,19.63
2017-09-25T19:41:24.834Z,20.13
2017-09-25T19:43:52.143Z,18.77
2017-09-25T19:46:19.480Z,19.60
2017-09-25T19:49:07.574Z,20.70
2017-09-25T19:51:34.893Z,19.27
2017-09-25T19:54:02.797Z,20.73
2017-09-25T19:56:35.928Z,20.30
2017-09-25T19:59:03.268Z,19.30
2017-09-25T20:01:30.628Z,20.13
2017-09-25T20:03:57.969Z,19.63
2017-09-25T20:06:25.479Z,19.67
2017-09-25T20:08:52.776Z,20.70
2017-09-25T20:11:20.893Z,20.13
2017-09-25T20:13:50.814Z,21.10
2017-09-25T20:16:21.829Z,21.23
2017-09-25T20:18:49.225Z,20.37
2017-09-25T20:21:16.537Z,20.73
2017-09-25T20:23:43.836Z,20.30
2017-09-25T20:26:11.153Z,20.57
2017-09-25T20:28:38.495Z,20.47
2017-09-25T20:31:05.801Z,20.90
2017-09-25T20:33:33.129Z,20.80
2017-09-25T20:36:00.446Z,20.10
2017-09-25T20:38:27.768Z,22.23
2017-09-25T20:41:04.994Z,20.70
2017-09-25T20:43:36.940Z,21.37
2017-09-25T20:46:04.306Z,21.00
2017-09-25T20:48:31.653Z,21.07
2017-09-25T20:50:58.975Z,20.97
2017-09-25T20:53:26.313Z,21.80
2017-09-25T20:55:53.621Z,21.13
2017-09-25T20:58:21.929Z,20.80
2017-09-25T21:00:49.283Z,20.20
2017-09-25T21:03:16.613Z,21.17
2017-09-25T21:05:43.961Z,20.30
2017-09-25T21:08:11.297Z,20.27
2017-09-25T21:10:38.652Z,19.60
2017-09-25T21:13:05.960Z,20.50
2017-09-25T21:15:33.284Z,19.77
2017-09-25T21:18:00.588Z,20.17
2017-09-25T21:20:27.905Z,20.47
2017-09-25T21:22:55.225Z,20.03
2017-09-25T21:25:22.616Z,21.83
2017-09-25T21:27:49.916Z,21.00
2017-09-25T21:30:17.254Z,20.30
2017-09-25T21:32:44.718Z,20.40
2017-09-25T21:35:12.027Z,20.40
2017-09-25T21:37:39.351Z,20.97
2017-09-25T21:40:06.652Z,20.10
2017-09-25T21:42:33.997Z,19.00
2017-09-25T21:45:01.309Z,19.70
2017-09-25T21:47:28.666Z,19.73
2017-09-25T21:49:55.992Z,20.17
2017-09-25T21:52:23.332Z,19.40
2017-09-25T21:54:50.990Z,20.97
2017-09-25T21:57:18.349Z,19.20
2017-09-25T21:59:45.657Z,18.93
2017-09-25T22:02:12.962Z,18.93
2017-09-25T22:04:40.284Z,20.63
2017-09-25T22:07:07.593Z,19.43
2017-09-25T22:09:34.933Z,19.83
2017-09-25T22:12:02.256Z,20.20
2017-09-25T22:14:29.621Z,20.13
2017-09-25T22:16:56.941Z,19.77
2017-09-25T22:19:24.293Z,20.07
2017-09-25T22:21:51.601Z,21.33
2017-09-25T22:24:18.924Z,21.27
2017-09-25T22:26:47.234Z,20.20
2017-09-25T22:29:14.583Z,20.37
2017-09-25T22:31:41.937Z,22.00
2017-09-25T22:34:09.256Z,21.00
2017-09-25T22:36:36.624Z,21.20
2017-09-25T22:39:03.940Z,21.57
2017-09-25T22:41:31.340Z,20.87
2017-09-25T22:43:59.272Z,21.57
2017-09-25T22:46:26.601Z,20.80
2017-09-25T22:48:53.929Z,20.17
2017-09-25T22:51:21.269Z,22.77
2017-09-25T22:53:48.588Z,22.63
2017-09-25T22:56:15.939Z,20.67
2017-09-25T22:58:43.241Z,21.97
2017-09-25T23:01:10.554Z,21.63
2017-09-25T23:03:55.693Z,22.57
2017-09-25T23:06:23.312Z,21.50
2017-09-25T23:08:50.628Z,21.50
2017-09-25T23:11:18.562Z,23.20
2017-09-25T23:13:45.885Z,23.87
2017-09-25T23:16:13.202Z,23.90
2017-09-25T23:18:40.518Z,22.57
2017-09-25T23:21:07.817Z,22.17
2017-09-25T23:23:35.152Z,24.50
2017-09-25T23:26:03.385Z,24.30
2017-09-25T23:28:30.700Z,22.97
2017-09-25T23:31:02.720Z,23.60
2017-09-25T23:33:30.044Z,24.10
2017-09-25T23:35:57.349Z,23.20
2017-09-25T23:38:24.669Z,23.40
2017-09-25T23:40:51.968Z,22.57
2017-09-25T23:43:19.489Z,22.47
2017-09-25T23:45:46.832Z,22.47
2017-09-25T23:48:14.184Z,22.13
2017-09-25T23:50:41.485Z,22.57
2017-09-25T23:53:08.785Z,24.53
2017-09-25T23:55:36.104Z,24.17
2017-09-25T23:58:03.417Z,24.23
